Time;durP1;ratioP1;P1;durP2;ratioP2;P2;SDS_P1;SDS_P2;PMS_P1;PMS_P2;Temp;Humidity;BMP_temperature;BMP_pressure;BME280_temperature;BME280_humidity;BME280_pressure;Samples;Min_cycle;Max_cycle;Signal;HPM_P1;HPM_P2
2024/04/15 00:00:26;;;;;;;8.32;4.95;;;12.80;99.90;;;;;;5393706;26;20007;-84
2024/04/15 00:02:52;;;;;;;9.57;5.25;;;12.80;99.90;;;;;;5361350;26;20003;-85
2024/04/15 00:05:18;;;;;;;8.50;5.43;;;12.80;99.90;;;;;;5392716;26;20015;-85
2024/04/15 00:07:43;;;;;;;7.32;5.00;;;12.70;99.90;;;;;;5392551;26;20463;-86
2024/04/15 00:10:09;;;;;;;8.77;4.55;;;12.70;99.90;;;;;;5392999;26;20040;-85
2024/04/15 00:12:35;;;;;;;7.47;4.63;;;12.70;99.90;;;;;;5394346;26;19996;-85
2024/04/15 00:15:00;;;;;;;5.45;4.75;;;12.70;99.90;;;;;;5392689;26;20961;-85
2024/04/15 00:17:26;;;;;;;6.85;4.80;;;12.70;99.90;;;;;;5393041;26;19996;-85
2024/04/15 00:19:52;;;;;;;5.32;4.38;;;12.70;99.90;;;;;;5390250;26;20050;-85
2024/04/15 00:22:18;;;;;;;8.52;4.78;;;12.70;99.90;;;;;;5389634;26;20020;-86
2024/04/15 00:24:43;;;;;;;9.02;4.60;;;12.60;99.90;;;;;;5391573;26;20056;-85
2024/04/15 00:27:09;;;;;;;6.00;4.50;;;12.60;99.90;;;;;;5390322;26;20003;-85
2024/04/15 00:29:34;;;;;;;8.38;4.65;;;12.60;99.90;;;;;;5389404;26;20021;-86
2024/04/15 00:32:00;;;;;;;5.75;4.45;;;12.50;99.90;;;;;;5395196;26;20011;-86
2024/04/15 00:34:26;;;;;;;6.78;4.78;;;12.50;99.90;;;;;;5396085;26;20004;-85
2024/04/15 00:36:51;;;;;;;8.70;5.05;;;12.50;99.90;;;;;;5396088;26;20050;-86
2024/04/15 00:39:17;;;;;;;7.13;4.50;;;12.40;99.90;;;;;;5395482;26;20464;-85
2024/04/15 00:41:43;;;;;;;8.25;5.32;;;12.40;99.90;;;;;;5395358;26;20297;-86
2024/04/15 00:44:08;;;;;;;6.63;4.10;;;12.40;99.90;;;;;;5395932;26;20480;-86
2024/04/15 00:46:34;;;;;;;6.90;4.60;;;12.40;99.90;;;;;;5394320;26;21043;-85
2024/04/15 00:49:01;;;;;;;8.18;4.63;;;12.40;99.90;;;;;;5395150;26;20014;-86
2024/04/15 00:51:28;;;;;;;9.18;4.57;;;12.40;99.90;;;;;;5363081;26;20099;-85
2024/04/15 00:53:54;;;;;;;7.30;4.57;;;12.40;99.90;;;;;;5395904;26;20007;-85
2024/04/15 00:56:24;;;;;;;7.13;4.18;;;12.40;99.90;;;;;;5361638;26;20012;-85
2024/04/15 00:58:51;;;;;;;5.93;4.10;;;12.40;99.90;;;;;;5362649;26;20547;-85
2024/04/15 01:01:17;;;;;;;6.88;3.70;;;12.40;99.90;;;;;;5395506;26;20996;-85
2024/04/15 01:03:43;;;;;;;6.10;4.32;;;12.40;99.90;;;;;;5394496;26;20146;-85
2024/04/15 01:06:09;;;;;;;8.68;4.78;;;12.40;99.90;;;;;;5395365;26;21125;-85
2024/04/15 01:08:35;;;;;;;7.25;4.38;;;12.40;99.90;;;;;;5395389;26;20015;-85
2024/04/15 01:11:01;;;;;;;8.13;4.63;;;12.40;99.90;;;;;;5396033;26;20025;-85
2024/04/15 01:13:27;;;;;;;5.70;4.15;;;12.40;99.90;;;;;;5394550;26;20446;-85
2024/04/15 01:16:00;;;;;;;5.80;4.15;;;12.40;99.90;;;;;;5395159;26;20021;-85
2024/04/15 01:18:27;;;;;;;8.00;4.03;;;12.30;99.90;;;;;;5396665;26;20098;-85
2024/04/15 01:20:56;;;;;;;11.55;4.40;;;12.40;99.90;;;;;;5394459;26;19995;-85
2024/04/15 01:23:30;;;;;;;10.00;5.15;;;12.30;99.90;;;;;;5395243;26;20236;-85
2024/04/15 01:25:55;;;;;;;5.82;4.30;;;12.40;99.90;;;;;;5395907;26;20032;-85
2024/04/15 01:28:21;;;;;;;7.40;4.13;;;12.30;99.90;;;;;;5395168;26;20011;-85
2024/04/15 01:30:47;;;;;;;5.70;3.90;;;12.30;99.90;;;;;;5394785;26;20023;-85
2024/04/15 01:33:12;;;;;;;5.57;3.80;;;12.30;99.90;;;;;;5364037;26;20050;-85
2024/04/15 01:35:38;;;;;;;7.00;3.55;;;12.30;99.90;;;;;;5395792;26;20015;-85
2024/04/15 01:38:03;;;;;;;6.20;4.20;;;12.30;99.90;;;;;;5393383;26;20008;-85
2024/04/15 01:40:29;;;;;;;4.93;3.85;;;12.30;99.90;;;;;;5395849;26;20013;-85
2024/04/15 01:42:55;;;;;;;5.20;3.67;;;12.30;99.90;;;;;;5397146;26;20014;-85
2024/04/15 01:45:21;;;;;;;6.72;3.70;;;12.30;99.90;;;;;;5396395;26;20026;-85
2024/04/15 01:47:50;;;;;;;5.65;3.88;;;12.30;99.90;;;;;;5396268;26;20036;-86
2024/04/15 01:50:16;;;;;;;4.97;3.88;;;12.30;99.90;;;;;;5395236;26;20067;-85
2024/04/15 01:52:44;;;;;;;7.75;3.95;;;12.30;99.90;;;;;;5394913;26;20411;-86
2024/04/15 01:55:10;;;;;;;5.45;4.10;;;12.30;99.90;;;;;;5361897;26;20004;-85
2024/04/15 01:57:35;;;;;;;4.78;3.75;;;12.30;99.90;;;;;;5394475;26;19995;-85
2024/04/15 02:00:03;;;;;;;6.50;3.83;;;12.30;99.90;;;;;;5393959;26;20014;-85
2024/04/15 02:02:30;;;;;;;8.07;3.92;;;12.30;99.90;;;;;;5392461;26;19996;-85
2024/04/15 02:04:55;;;;;;;8.00;3.63;;;12.30;99.90;;;;;;5393059;26;20015;-85
2024/04/15 02:07:22;;;;;;;7.07;3.60;;;12.30;99.90;;;;;;5393981;26;20467;-85
2024/04/15 02:09:48;;;;;;;5.00;3.20;;;12.30;99.90;;;;;;5393805;26;20022;-85
2024/04/15 02:12:13;;;;;;;5.05;3.30;;;12.30;99.90;;;;;;5393454;26;19999;-85
2024/04/15 02:14:39;;;;;;;7.55;3.53;;;12.30;99.90;;;;;;5394811;26;20018;-85
2024/04/15 02:17:04;;;;;;;5.35;3.47;;;12.40;99.90;;;;;;5394140;26;20004;-86
2024/04/15 02:19:32;;;;;;;8.73;3.25;;;12.40;99.90;;;;;;5390791;26;20459;-86
2024/04/15 02:21:58;;;;;;;5.10;3.42;;;12.40;99.90;;;;;;5390738;26;20460;-85
2024/04/15 02:24:24;;;;;;;5.50;3.00;;;12.50;99.90;;;;;;5390349;26;20076;-85
2024/04/15 02:26:50;;;;;;;7.75;2.97;;;12.50;99.90;;;;;;5362354;26;20001;-86
2024/04/15 02:29:15;;;;;;;5.68;3.17;;;12.50;99.90;;;;;;5393086;26;20004;-85
2024/04/15 02:31:41;;;;;;;4.82;2.80;;;12.50;99.90;;;;;;5393922;26;20033;-86
2024/04/15 02:34:06;;;;;;;5.00;2.95;;;12.60;99.90;;;;;;5392614;26;19999;-86
2024/04/15 02:36:32;;;;;;;6.38;3.17;;;12.60;99.90;;;;;;5392847;26;20000;-86
2024/04/15 02:38:57;;;;;;;6.50;3.53;;;12.60;99.90;;;;;;5392914;26;20459;-86
2024/04/15 02:41:23;;;;;;;7.20;3.20;;;12.60;99.90;;;;;;5393011;26;20456;-85
2024/04/15 02:43:49;;;;;;;4.00;2.80;;;12.70;99.90;;;;;;5394813;26;20038;-86
2024/04/15 02:46:16;;;;;;;3.88;2.50;;;12.70;99.90;;;;;;5391805;26;20118;-86
2024/04/15 02:48:42;;;;;;;8.48;2.70;;;12.70;99.90;;;;;;5393418;26;20054;-85
2024/04/15 02:51:08;;;;;;;7.60;2.80;;;12.70;99.90;;;;;;5394702;26;19995;-85
2024/04/15 02:53:33;;;;;;;4.07;2.90;;;12.70;99.90;;;;;;5361497;26;20000;-85
2024/04/15 02:55:59;;;;;;;6.03;3.20;;;12.70;99.90;;;;;;5393119;26;20003;-85
2024/04/15 02:58:24;;;;;;;6.03;3.10;;;12.70;99.90;;;;;;5395369;26;19995;-85
2024/04/15 03:00:50;;;;;;;5.88;2.45;;;12.70;99.90;;;;;;5392082;26;19988;-85
2024/04/15 03:03:15;;;;;;;5.28;2.70;;;12.70;99.90;;;;;;5392597;26;19999;-85
2024/04/15 03:05:43;;;;;;;4.70;2.60;;;12.80;99.90;;;;;;5393001;26;20006;-86
2024/04/15 03:08:09;;;;;;;4.15;2.42;;;12.80;99.90;;;;;;5395109;26;20007;-87
2024/04/15 03:10:35;;;;;;;6.43;2.95;;;12.90;99.90;;;;;;5361790;26;20019;-85
2024/04/15 03:13:01;;;;;;;5.75;2.10;;;12.90;99.90;;;;;;5391598;26;19995;-86
2024/04/15 03:15:26;;;;;;;5.53;2.20;;;13.00;99.90;;;;;;5393073;26;20107;-85
2024/04/15 03:17:52;;;;;;;3.92;2.20;;;13.00;99.90;;;;;;5392119;26;20360;-85
2024/04/15 03:20:18;;;;;;;5.82;2.80;;;13.10;99.90;;;;;;5393021;26;20013;-86
2024/04/15 03:22:50;;;;;;;6.82;2.40;;;13.20;99.90;;;;;;5394561;26;20538;-85
2024/04/15 03:25:18;;;;;;;3.03;2.30;;;13.30;99.90;;;;;;5393174;26;19999;-85
2024/04/15 03:27:45;;;;;;;4.85;2.40;;;13.30;99.90;;;;;;5393611;26;20018;-85
2024/04/15 03:30:10;;;;;;;3.83;2.40;;;13.40;99.90;;;;;;5392014;26;20008;-85
2024/04/15 03:32:36;;;;;;;5.15;2.28;;;13.40;99.90;;;;;;5391386;26;20458;-85
2024/04/15 03:35:02;;;;;;;5.22;2.30;;;13.40;99.90;;;;;;5391050;26;20052;-86
2024/04/15 03:37:27;;;;;;;4.32;2.30;;;13.50;99.90;;;;;;5359028;26;20000;-85
2024/04/15 03:39:53;;;;;;;4.38;2.22;;;13.70;99.90;;;;;;5389851;26;20000;-85
2024/04/15 03:42:18;;;;;;;4.68;2.80;;;13.90;99.90;;;;;;5389300;26;20089;-85
2024/04/15 03:44:44;;;;;;;5.95;2.22;;;14.10;99.90;;;;;;5390688;26;20023;-85
2024/04/15 03:47:09;;;;;;;5.68;2.55;;;14.20;99.90;;;;;;5393288;26;20007;-85
2024/04/15 03:49:36;;;;;;;5.60;2.50;;;14.30;99.90;;;;;;5358889;26;20008;-85
2024/04/15 03:52:02;;;;;;;5.35;2.50;;;14.40;99.90;;;;;;5391758;26;20030;-85
2024/04/15 03:54:27;;;;;;;4.15;2.75;;;14.40;99.90;;;;;;5360135;26;20061;-86
2024/04/15 03:56:53;;;;;;;3.63;2.40;;;14.50;99.90;;;;;;5391723;26;20004;-85
2024/04/15 03:59:19;;;;;;;4.50;2.38;;;14.50;99.90;;;;;;5391213;26;20117;-86
2024/04/15 04:01:45;;;;;;;4.60;2.58;;;14.50;99.90;;;;;;5386946;26;20096;-86
2024/04/15 04:04:10;;;;;;;3.70;2.55;;;14.50;99.90;;;;;;5388790;26;20435;-85
2024/04/15 04:06:36;;;;;;;5.10;2.65;;;14.50;99.90;;;;;;5393225;26;20853;-85
2024/04/15 04:09:01;;;;;;;4.30;2.50;;;14.50;99.90;;;;;;5392841;26;20000;-85
2024/04/15 04:11:27;;;;;;;7.38;2.88;;;14.50;99.90;;;;;;5393868;26;20124;-85
2024/04/15 04:13:52;;;;;;;5.90;2.95;;;14.60;99.90;;;;;;5393790;26;20088;-85
2024/04/15 04:16:18;;;;;;;6.53;2.55;;;14.60;99.90;;;;;;5393920;26;20021;-86
2024/04/15 04:18:47;;;;;;;5.35;2.47;;;14.50;99.90;;;;;;5395814;26;20019;-85
2024/04/15 04:21:13;;;;;;;4.63;2.80;;;14.40;99.90;;;;;;5392745;26;20011;-85
2024/04/15 04:23:38;;;;;;;5.57;3.20;;;14.50;99.90;;;;;;5395201;26;20007;-85
2024/04/15 04:26:04;;;;;;;6.25;2.97;;;14.40;99.90;;;;;;5395275;26;21890;-86
2024/04/15 04:28:29;;;;;;;4.32;2.70;;;14.40;99.90;;;;;;5392332;26;20003;-85
2024/04/15 04:31:03;;;;;;;4.30;2.70;;;14.40;99.90;;;;;;5386770;26;20003;-85
2024/04/15 04:33:31;;;;;;;6.33;3.00;;;14.30;99.90;;;;;;5388459;26;20065;-85
2024/04/15 04:35:56;;;;;;;7.75;2.90;;;14.30;99.90;;;;;;5389284;26;20011;-85
2024/04/15 04:38:22;;;;;;;4.95;2.70;;;14.30;99.90;;;;;;5388029;26;20006;-85
2024/04/15 04:41:01;;;;;;;3.58;2.75;;;14.20;99.90;;;;;;5392880;26;20005;-86
2024/04/15 04:43:27;;;;;;;5.68;3.05;;;14.20;99.90;;;;;;5390796;26;20009;-86
2024/04/15 04:45:53;;;;;;;6.43;2.90;;;14.20;99.90;;;;;;5390867;26;20477;-86
2024/04/15 04:48:20;;;;;;;4.47;2.85;;;14.20;99.90;;;;;;5388898;26;21708;-85
2024/04/15 04:50:49;;;;;;;5.45;3.30;;;14.20;99.90;;;;;;5391952;26;20023;-85
2024/04/15 04:53:15;;;;;;;10.25;3.45;;;14.10;99.90;;;;;;5388624;26;20007;-85
2024/04/15 04:55:42;;;;;;;6.93;3.50;;;14.10;99.90;;;;;;5358523;26;20015;-85
2024/04/15 04:58:07;;;;;;;5.70;3.40;;;14.10;99.90;;;;;;5390980;26;20004;-85
2024/04/15 05:00:33;;;;;;;4.72;3.10;;;14.10;99.90;;;;;;5385966;26;20027;-85
2024/04/15 05:02:59;;;;;;;4.47;2.97;;;14.00;99.90;;;;;;5355368;26;20111;-85
2024/04/15 05:05:25;;;;;;;5.30;3.10;;;14.00;99.90;;;;;;5393884;26;20062;-86
2024/04/15 05:07:50;;;;;;;6.13;3.58;;;14.00;99.90;;;;;;5396168;26;20000;-85
2024/04/15 05:10:16;;;;;;;6.70;3.20;;;13.90;99.90;;;;;;5367927;26;20019;-83
2024/04/15 05:12:42;;;;;;;4.63;3.67;;;13.90;99.90;;;;;;5397362;26;20007;-84
2024/04/15 05:15:10;;;;;;;8.45;3.70;;;13.80;99.90;;;;;;5401781;26;20003;-84
2024/04/15 05:17:36;;;;;;;5.38;3.65;;;13.80;99.90;;;;;;5395981;26;20656;-84
2024/04/15 05:20:02;;;;;;;6.60;3.83;;;13.80;99.90;;;;;;5395644;26;20081;-86
2024/04/15 05:22:27;;;;;;;5.03;3.70;;;13.80;99.90;;;;;;5365156;26;20000;-85
2024/04/15 05:24:54;;;;;;;7.00;3.53;;;13.70;99.90;;;;;;5395957;26;19991;-84
2024/04/15 05:27:19;;;;;;;6.28;4.03;;;13.70;99.90;;;;;;5397045;26;20012;-84
2024/04/15 05:29:45;;;;;;;7.68;4.53;;;13.70;99.90;;;;;;5363659;26;20036;-84
2024/04/15 05:32:10;;;;;;;6.15;3.83;;;13.70;99.90;;;;;;5394804;26;20016;-84
2024/04/15 05:34:37;;;;;;;6.25;4.03;;;13.70;99.90;;;;;;5362774;26;20073;-84
2024/04/15 05:37:04;;;;;;;7.72;4.50;;;13.70;99.90;;;;;;5361962;26;20010;-85
2024/04/15 05:39:31;;;;;;;15.15;4.97;;;13.70;99.90;;;;;;5395636;26;20015;-84
2024/04/15 05:41:57;;;;;;;6.00;4.30;;;13.60;99.90;;;;;;5396049;26;20014;-85
2024/04/15 05:44:22;;;;;;;7.07;4.00;;;13.60;99.90;;;;;;5394069;26;20008;-84
2024/04/15 05:46:51;;;;;;;5.43;3.78;;;13.60;99.90;;;;;;5397810;26;20040;-84
2024/04/15 05:49:20;;;;;;;6.53;3.83;;;13.60;99.90;;;;;;5395709;26;20007;-84
2024/04/15 05:51:46;;;;;;;5.93;4.15;;;13.60;99.90;;;;;;5395411;26;20019;-85
2024/04/15 05:54:12;;;;;;;5.55;3.95;;;13.50;99.90;;;;;;5393467;26;20007;-84
2024/04/15 05:56:38;;;;;;;11.98;4.47;;;13.50;99.90;;;;;;5396727;26;20014;-81
2024/04/15 05:59:03;;;;;;;7.90;4.47;;;13.50;99.90;;;;;;5390690;26;20788;-86
2024/04/15 06:01:29;;;;;;;8.90;4.68;;;13.40;99.90;;;;;;5389994;26;20015;-85
2024/04/15 06:03:54;;;;;;;7.50;4.47;;;13.40;99.90;;;;;;5398469;26;20011;-85
2024/04/15 06:06:20;;;;;;;7.72;4.30;;;13.40;99.90;;;;;;5395258;26;20010;-84
2024/04/15 06:08:45;;;;;;;9.25;4.60;;;13.40;99.90;;;;;;5394660;26;20084;-86
2024/04/15 06:11:11;;;;;;;7.85;4.75;;;13.30;99.90;;;;;;5395272;26;20067;-86
2024/04/15 06:13:36;;;;;;;12.88;5.30;;;13.40;99.90;;;;;;5380096;26;20054;-85
2024/04/15 06:16:02;;;;;;;8.00;4.47;;;13.40;99.90;;;;;;5386472;26;20007;-88
2024/04/15 06:18:28;;;;;;;8.50;4.53;;;13.40;99.90;;;;;;5394727;26;20003;-88
2024/04/15 06:20:53;;;;;;;6.50;4.85;;;13.40;99.90;;;;;;5387569;26;20022;-86
2024/04/15 06:23:19;;;;;;;8.82;4.50;;;13.40;99.90;;;;;;5381952;26;20000;-86
2024/04/15 06:25:51;;;;;;;8.20;4.30;;;13.40;99.90;;;;;;5387719;26;20012;-88
2024/04/15 06:28:16;;;;;;;6.93;4.40;;;13.50;99.90;;;;;;5389327;26;19999;-83
2024/04/15 06:30:42;;;;;;;8.90;5.30;;;13.40;99.90;;;;;;5388494;26;20004;-85
2024/04/15 06:33:07;;;;;;;8.32;5.30;;;13.40;99.90;;;;;;5386774;26;20336;-86
2024/04/15 06:35:33;;;;;;;7.68;4.47;;;13.50;99.90;;;;;;5393911;26;20004;-85
2024/04/15 06:37:59;;;;;;;9.68;4.80;;;13.50;99.90;;;;;;5399245;26;20019;-84
2024/04/15 06:40:25;;;;;;;6.50;4.50;;;13.50;99.90;;;;;;5400038;26;20003;-85
2024/04/15 06:42:50;;;;;;;9.38;5.45;;;13.50;99.90;;;;;;5399474;26;20003;-84
2024/04/15 06:45:16;;;;;;;9.15;5.20;;;13.60;99.90;;;;;;5402272;26;20023;-87
2024/04/15 06:47:41;;;;;;;6.65;5.10;;;13.60;99.90;;;;;;5400011;26;20003;-86
2024/04/15 06:50:07;;;;;;;7.75;4.60;;;13.70;99.90;;;;;;5398311;26;20007;-85
2024/04/15 06:52:33;;;;;;;8.07;4.47;;;13.70;99.90;;;;;;5398012;26;20534;-86
2024/04/15 06:54:58;;;;;;;8.00;5.00;;;13.80;99.90;;;;;;5396943;26;20007;-85
2024/04/15 06:57:24;;;;;;;5.30;4.40;;;13.80;99.90;;;;;;5395322;26;20022;-86
2024/04/15 06:59:50;;;;;;;8.13;4.50;;;13.90;99.90;;;;;;5400998;26;20011;-86
2024/04/15 07:02:20;;;;;;;7.80;4.47;;;13.90;99.90;;;;;;5393557;26;20000;-86
2024/04/15 07:04:50;;;;;;;10.02;5.80;;;14.00;99.90;;;;;;5399871;26;20023;-86
2024/04/15 07:07:16;;;;;;;9.65;4.80;;;13.90;99.90;;;;;;5399231;26;20007;-88
2024/04/15 07:09:42;;;;;;;6.90;4.60;;;14.00;99.90;;;;;;5399977;26;20058;-86
2024/04/15 07:12:09;;;;;;;6.82;3.88;;;14.00;99.90;;;;;;5397959;26;20000;-86
2024/04/15 07:14:36;;;;;;;5.85;4.03;;;14.10;99.90;;;;;;5395242;26;20007;-86
2024/04/15 07:17:01;;;;;;;8.48;4.05;;;14.10;99.90;;;;;;5396877;26;20008;-85
2024/04/15 07:19:27;;;;;;;6.38;4.40;;;14.10;99.90;;;;;;5400065;26;20045;-87
2024/04/15 07:21:52;;;;;;;5.80;4.28;;;14.20;99.90;;;;;;5396155;26;20012;-87
2024/04/15 07:24:18;;;;;;;8.75;4.50;;;14.20;99.90;;;;;;5366303;26;20058;-86
2024/04/15 07:26:43;;;;;;;9.60;4.63;;;14.10;99.90;;;;;;5390012;26;20293;-88
2024/04/15 07:29:09;;;;;;;8.88;4.15;;;14.10;99.90;;;;;;5392603;26;20008;-86
2024/04/15 07:31:34;;;;;;;12.63;4.95;;;14.10;99.90;;;;;;5362155;26;20816;-88
2024/04/15 07:34:00;;;;;;;7.25;4.43;;;14.10;99.90;;;;;;5397109;26;20373;-87
2024/04/15 07:36:28;;;;;;;6.90;4.43;;;14.10;99.90;;;;;;5395735;26;20325;-86
2024/04/15 07:38:54;;;;;;;4.65;3.80;;;14.10;99.90;;;;;;5398689;26;20004;-86
2024/04/15 07:41:20;;;;;;;7.35;4.03;;;14.20;99.90;;;;;;5394953;26;20356;-86
2024/04/15 07:43:46;;;;;;;6.20;4.03;;;14.20;99.90;;;;;;5400913;26;20463;-86
2024/04/15 07:46:11;;;;;;;10.15;4.15;;;14.20;99.90;;;;;;5365362;26;20018;-86
2024/04/15 07:48:37;;;;;;;6.60;4.45;;;14.30;99.90;;;;;;5361652;26;20065;-86
2024/04/15 07:51:02;;;;;;;7.07;5.10;;;14.30;99.90;;;;;;5398283;26;20031;-86
2024/04/15 07:53:28;;;;;;;10.98;4.63;;;14.30;99.90;;;;;;5398110;26;20008;-86
2024/04/15 07:55:54;;;;;;;5.65;4.20;;;14.30;99.90;;;;;;5398723;26;20003;-87
2024/04/15 07:58:20;;;;;;;7.53;4.60;;;14.30;99.90;;;;;;5401870;26;20026;-89
2024/04/15 08:00:46;;;;;;;7.18;4.93;;;14.30;99.90;;;;;;5400570;26;20024;-87
2024/04/15 08:03:12;;;;;;;7.57;4.47;;;14.30;99.90;;;;;;5398290;26;20026;-86
2024/04/15 08:05:38;;;;;;;8.73;5.18;;;14.30;99.90;;;;;;5402629;26;21608;-88
2024/04/15 08:08:05;;;;;;;9.07;5.32;;;14.30;99.90;;;;;;5401544;26;20004;-88
2024/04/15 08:10:34;;;;;;;10.68;4.78;;;14.30;99.90;;;;;;5401886;26;20057;-86
2024/04/15 08:13:00;;;;;;;7.55;5.18;;;14.40;99.90;;;;;;5400569;26;20084;-86
2024/04/15 08:15:26;;;;;;;10.07;4.75;;;14.40;99.90;;;;;;5367888;26;20008;-86
2024/04/15 08:17:51;;;;;;;7.72;4.72;;;14.50;99.90;;;;;;5403477;26;20007;-86
2024/04/15 08:20:17;;;;;;;7.53;4.75;;;14.50;99.90;;;;;;5405482;26;20070;-88
2024/04/15 08:22:44;;;;;;;7.18;5.05;;;14.50;99.90;;;;;;5402227;26;21473;-86
2024/04/15 08:25:09;;;;;;;7.47;4.57;;;14.60;99.90;;;;;;5400139;26;20023;-86
2024/04/15 08:27:37;;;;;;;9.98;4.95;;;14.60;99.90;;;;;;5399044;26;19996;-86
2024/04/15 08:30:03;;;;;;;8.60;4.90;;;14.60;99.90;;;;;;5401268;26;20007;-86
2024/04/15 08:32:29;;;;;;;8.50;5.00;;;14.60;99.90;;;;;;5403826;26;20012;-86
2024/04/15 08:34:54;;;;;;;7.68;5.00;;;14.60;99.90;;;;;;5401520;26;20505;-86
2024/04/15 08:37:20;;;;;;;7.15;4.85;;;14.60;99.90;;;;;;5404917;26;20377;-86
2024/04/15 08:39:45;;;;;;;8.60;4.85;;;14.60;99.90;;;;;;5405284;26;20007;-87
2024/04/15 08:42:24;;;;;;;9.85;5.22;;;14.60;99.90;;;;;;5397312;26;20015;-86
2024/04/15 08:44:53;;;;;;;11.55;5.47;;;14.60;99.90;;;;;;5397466;26;20012;-86
2024/04/15 08:47:28;;;;;;;7.35;5.07;;;14.50;99.90;;;;;;5394070;26;20008;-87
2024/04/15 08:49:53;;;;;;;6.05;4.45;;;14.60;99.90;;;;;;5396035;26;20003;-87
2024/04/15 08:52:19;;;;;;;7.53;5.20;;;14.60;99.90;;;;;;5399248;26;20173;-86
2024/04/15 08:54:45;;;;;;;8.13;5.15;;;14.60;99.90;;;;;;5393088;26;20022;-87
2024/04/15 08:57:14;;;;;;;8.23;4.57;;;14.70;99.90;;;;;;5400887;26;20769;-87
2024/04/15 08:59:43;;;;;;;8.20;4.72;;;14.70;99.90;;;;;;5393252;26;20016;-87
2024/04/15 09:02:14;;;;;;;6.00;5.05;;;14.70;99.90;;;;;;5356496;26;20083;-87
2024/04/15 09:04:41;;;;;;;9.07;4.50;;;14.60;99.90;;;;;;5332325;26;20004;-87
2024/04/15 09:07:07;;;;;;;8.55;5.32;;;14.60;99.90;;;;;;5391864;26;20059;-87
2024/04/15 09:09:32;;;;;;;8.68;5.00;;;14.50;99.90;;;;;;5390234;26;20018;-89
2024/04/15 09:11:58;;;;;;;7.88;5.13;;;14.50;99.90;;;;;;5397565;26;19992;-88
2024/04/15 09:14:23;;;;;;;6.35;4.68;;;14.40;99.90;;;;;;5387131;26;20008;-88
2024/04/15 09:16:52;;;;;;;9.48;5.30;;;14.40;99.90;;;;;;5342861;26;20138;-89
2024/04/15 09:19:18;;;;;;;8.02;4.90;;;14.40;99.90;;;;;;5348219;26;20004;-88
2024/04/15 09:21:44;;;;;;;7.18;4.97;;;14.30;99.90;;;;;;5342882;26;20858;-88
2024/04/15 09:24:10;;;;;;;6.20;4.80;;;14.30;99.90;;;;;;5345965;26;20019;-87
2024/04/15 09:26:36;;;;;;;7.93;5.45;;;14.30;99.90;;;;;;5341694;26;21724;-85
2024/04/15 09:29:02;;;;;;;8.93;5.50;;;14.30;99.90;;;;;;5345931;26;21129;-87
2024/04/15 09:31:28;;;;;;;8.15;5.68;;;14.30;99.90;;;;;;5349214;26;20040;-87
2024/04/15 09:33:54;;;;;;;10.85;6.57;;;14.20;99.90;;;;;;5342556;26;20969;-87
2024/04/15 09:36:20;;;;;;;8.27;5.63;;;14.20;99.90;;;;;;5345853;26;20012;-87
2024/04/15 09:38:46;;;;;;;8.50;6.03;;;14.20;99.90;;;;;;5346859;26;20000;-87
2024/04/15 09:41:12;;;;;;;12.57;6.30;;;14.20;99.90;;;;;;5345425;26;20022;-88
2024/04/15 09:43:39;;;;;;;11.98;6.43;;;14.10;99.90;;;;;;5347034;26;20493;-87
2024/04/15 09:46:04;;;;;;;8.50;6.43;;;14.00;99.90;;;;;;5318191;26;20008;-88
2024/04/15 09:48:31;;;;;;;8.63;5.63;;;14.00;99.90;;;;;;5311621;26;20014;-80
2024/04/15 09:51:05;;;;;;;11.48;6.03;;;13.90;99.90;;;;;;5339262;26;20020;-87
2024/04/15 09:53:38;;;;;;;9.80;6.47;;;13.90;99.90;;;;;;5345296;26;20019;-87
2024/04/15 09:56:12;;;;;;;10.70;6.28;;;13.90;99.90;;;;;;5347303;26;20242;-89
2024/04/15 09:58:42;;;;;;;11.45;6.55;;;13.80;99.90;;;;;;5341373;26;21406;-88
2024/04/15 10:01:09;;;;;;;9.73;6.15;;;13.80;99.90;;;;;;5315501;26;20118;-87
2024/04/15 10:03:37;;;;;;;10.07;5.85;;;13.80;99.90;;;;;;5348710;26;20486;-88
2024/04/15 10:06:04;;;;;;;6.60;4.72;;;13.70;99.90;;;;;;5349978;26;20007;-90
2024/04/15 10:08:31;;;;;;;5.72;3.80;;;13.70;99.90;;;;;;5316626;26;20014;-89
2024/04/15 10:10:57;;;;;;;9.43;4.78;;;13.50;99.90;;;;;;5348672;26;20837;-88
2024/04/15 10:13:24;;;;;;;6.75;3.00;;;13.40;99.90;;;;;;5345762;26;21983;-89
2024/04/15 10:15:58;;;;;;;5.65;2.78;;;13.30;99.90;;;;;;5348167;26;20011;-89
2024/04/15 10:18:28;;;;;;;5.67;2.83;;;13.10;99.90;;;;;;5346043;26;20007;-89
2024/04/15 10:20:56;;;;;;;8.93;3.25;;;13.00;99.90;;;;;;5348430;26;21709;-89
2024/04/15 10:23:24;;;;;;;8.45;3.50;;;12.90;99.90;;;;;;5313778;26;19995;-88
2024/04/15 10:25:50;;;;;;;4.85;3.10;;;12.80;99.90;;;;;;5344830;26;20004;-88
2024/04/15 10:28:16;;;;;;;9.65;3.40;;;12.70;99.90;;;;;;5346003;26;20015;-88
2024/04/15 10:30:45;;;;;;;9.25;3.22;;;12.70;99.90;;;;;;5314545;26;20008;-88
2024/04/15 10:33:11;;;;;;;8.57;3.70;;;12.70;99.90;;;;;;5346320;26;20000;-89
2024/04/15 10:35:39;;;;;;;6.50;3.85;;;12.60;99.90;;;;;;5345318;26;20386;-89
2024/04/15 10:38:07;;;;;;;9.10;4.03;;;12.50;99.90;;;;;;5344983;26;21710;-90
2024/04/15 10:40:44;;;;;;;5.20;3.83;;;12.60;99.90;;;;;;5344141;26;20004;-88
2024/04/15 10:43:17;;;;;;;7.53;4.05;;;12.50;99.90;;;;;;5343523;26;21638;-88
2024/04/15 10:45:45;;;;;;;7.72;3.90;;;12.60;99.90;;;;;;5347739;26;20018;-89
2024/04/15 10:48:11;;;;;;;11.38;6.00;;;12.60;99.90;;;;;;5338602;26;21096;-88
2024/04/15 10:50:36;;;;;;;6.80;4.30;;;12.60;99.90;;;;;;5306431;26;20019;-88
2024/04/15 10:53:02;;;;;;;7.03;4.50;;;12.60;99.90;;;;;;5309422;26;20534;-89
2024/04/15 10:55:29;;;;;;;11.18;5.00;;;12.60;99.90;;;;;;5341442;26;20016;-88
2024/04/15 10:57:56;;;;;;;8.85;4.85;;;12.70;99.90;;;;;;5343777;26;20966;-88
2024/04/15 11:00:23;;;;;;;6.63;4.05;;;12.70;99.90;;;;;;5339771;26;21704;-88
2024/04/15 11:02:53;;;;;;;9.57;4.47;;;12.70;99.90;;;;;;5341155;26;20015;-87
2024/04/15 11:05:20;;;;;;;9.05;4.47;;;12.70;99.90;;;;;;5310590;26;20011;-89
2024/04/15 11:07:47;;;;;;;11.60;5.22;;;12.80;99.90;;;;;;5341026;26;20076;-89
2024/04/15 11:10:14;;;;;;;8.20;4.88;;;12.90;99.90;;;;;;5343739;26;20098;-88
2024/04/15 11:12:41;;;;;;;8.50;5.18;;;12.90;99.90;;;;;;5311613;26;20007;-88
2024/04/15 11:15:15;;;;;;;5.65;4.25;;;13.10;99.90;;;;;;5340882;26;20076;-88
2024/04/15 11:17:45;;;;;;;8.18;4.30;;;13.10;99.90;;;;;;5340686;26;20008;-88
2024/04/15 11:20:12;;;;;;;6.72;4.40;;;13.30;99.90;;;;;;5307596;26;21350;-89
2024/04/15 11:22:37;;;;;;;7.38;4.38;;;13.30;99.90;;;;;;5340083;26;20093;-88
2024/04/15 11:25:03;;;;;;;10.40;4.70;;;13.40;99.90;;;;;;5343572;26;20007;-89
2024/04/15 11:27:33;;;;;;;6.85;4.65;;;13.40;99.90;;;;;;5342500;26;19999;-89
2024/04/15 11:30:00;;;;;;;6.78;4.30;;;13.40;99.90;;;;;;5308057;26;19996;-88
2024/04/15 11:32:27;;;;;;;7.50;5.20;;;13.40;99.90;;;;;;5337847;26;19999;-88
2024/04/15 11:34:54;;;;;;;7.55;4.82;;;13.40;99.90;;;;;;5342034;26;19996;-89
2024/04/15 11:37:20;;;;;;;8.35;4.43;;;13.50;99.90;;;;;;5308341;26;20000;-89
2024/04/15 11:39:46;;;;;;;8.70;5.00;;;13.40;99.90;;;;;;5340948;26;20031;-88
2024/04/15 11:42:13;;;;;;;7.18;4.70;;;13.40;99.90;;;;;;5340836;26;20015;-89
2024/04/15 11:44:39;;;;;;;8.57;5.00;;;13.40;99.90;;;;;;5345266;26;20000;-91
2024/04/15 11:47:05;;;;;;;7.38;5.10;;;13.30;99.90;;;;;;5348712;26;21223;-91
2024/04/15 11:49:30;;;;;;;8.95;5.03;;;13.30;99.90;;;;;;5350410;26;20046;-93
2024/04/15 11:51:59;;;;;;;7.70;4.57;;;13.30;99.90;;;;;;5318250;26;20007;-90
2024/04/15 11:54:29;;;;;;;6.95;4.47;;;13.30;99.90;;;;;;5350844;26;20458;-90
2024/04/15 11:56:55;;;;;;;8.13;4.00;;;13.20;99.90;;;;;;5346714;26;20011;-90
2024/04/15 11:59:21;;;;;;;7.10;4.45;;;13.20;99.90;;;;;;5348374;26;20049;-90
2024/04/15 12:01:47;;;;;;;5.47;4.18;;;13.10;99.90;;;;;;5316044;26;20108;-93
2024/04/15 12:04:13;;;;;;;6.38;4.60;;;13.20;99.90;;;;;;5354874;26;20191;-90
2024/04/15 12:06:43;;;;;;;8.18;4.55;;;13.20;99.90;;;;;;5353955;26;20060;-92
2024/04/15 12:09:09;;;;;;;6.38;3.92;;;13.20;99.90;;;;;;5347330;26;20109;-91
2024/04/15 12:11:34;;;;;;;5.18;3.80;;;13.20;99.90;;;;;;5314213;26;20023;-91
2024/04/15 12:14:02;;;;;;;6.20;3.92;;;13.20;99.90;;;;;;5347448;26;20008;-91
2024/04/15 12:16:28;;;;;;;6.75;4.03;;;13.20;99.90;;;;;;5346022;26;20001;-90
2024/04/15 12:18:54;;;;;;;6.53;4.25;;;13.30;99.90;;;;;;5346611;26;20527;-90
2024/04/15 12:21:19;;;;;;;8.88;4.53;;;13.30;99.90;;;;;;5345706;26;19996;-91
2024/04/15 12:23:45;;;;;;;6.57;3.85;;;13.40;99.90;;;;;;5350803;26;20008;-90
2024/04/15 12:26:10;;;;;;;9.45;3.70;;;13.60;99.90;;;;;;5347756;26;20000;-91
2024/04/15 12:28:37;;;;;;;5.30;3.40;;;13.80;99.90;;;;;;5345713;26;19999;-92
2024/04/15 12:31:02;;;;;;;7.10;3.47;;;14.00;99.90;;;;;;5351144;26;20072;-91
2024/04/15 12:33:28;;;;;;;6.38;3.70;;;14.10;99.90;;;;;;5341455;26;20889;-90
2024/04/15 12:35:54;;;;;;;6.82;3.50;;;14.20;99.90;;;;;;5312553;26;21277;-90
2024/04/15 12:38:20;;;;;;;8.05;4.30;;;14.10;99.90;;;;;;5340563;26;20004;-90
2024/04/15 12:40:46;;;;;;;5.47;3.60;;;14.20;99.90;;;;;;5337819;26;20073;-89